Time;durP1;ratioP1;P1;durP2;ratioP2;P2;SDS_P1;SDS_P2;PMS_P1;PMS_P2;Temp;Humidity;BMP_temperature;BMP_pressure;BME280_temperature;BME280_humidity;BME280_pressure;Samples;Min_cycle;Max_cycle;Signal;HPM_P1;HPM_P2
2022/10/13 00:01:07;;;;;;;11.47;8.27;;;11.10;99.90;;;;;;4860664;29;20211;-89
2022/10/13 00:03:35;;;;;;;11.43;8.17;;;11.20;99.90;;;;;;4861190;29;20186;-89
2022/10/13 00:06:05;;;;;;;11.27;7.93;;;11.20;99.90;;;;;;4861854;29;20190;-89
2022/10/13 00:08:31;;;;;;;14.57;9.13;;;11.20;99.90;;;;;;4861578;29;20189;-89
2022/10/13 00:10:59;;;;;;;9.90;8.23;;;11.20;99.90;;;;;;4862197;29;20244;-88
2022/10/13 00:13:27;;;;;;;19.80;13.80;;;11.20;99.90;;;;;;4861635;29;20222;-89
2022/10/13 00:15:53;;;;;;;13.80;10.50;;;11.20;99.90;;;;;;4862029;29;20184;-88
2022/10/13 00:18:20;;;;;;;19.80;13.63;;;11.30;99.90;;;;;;4846399;29;20178;-89
2022/10/13 00:20:48;;;;;;;23.70;13.33;;;11.30;99.90;;;;;;4846596;29;20209;-89
2022/10/13 00:23:15;;;;;;;20.90;13.40;;;11.40;99.90;;;;;;4860389;29;20187;-89
2022/10/13 00:25:50;;;;;;;16.67;12.27;;;11.50;99.90;;;;;;4860117;29;20185;-89
2022/10/13 00:28:18;;;;;;;15.47;11.07;;;11.50;99.90;;;;;;4862130;29;20186;-89
2022/10/13 00:30:45;;;;;;;11.60;9.90;;;11.60;99.90;;;;;;4861405;29;20299;-89
2022/10/13 00:33:13;;;;;;;14.13;9.57;;;11.60;99.90;;;;;;4861138;29;20211;-88
2022/10/13 00:35:44;;;;;;;11.87;8.67;;;11.60;99.90;;;;;;4861634;29;20217;-89
2022/10/13 00:38:19;;;;;;;13.40;8.77;;;11.50;99.90;;;;;;4831380;29;20188;-89
2022/10/13 00:40:50;;;;;;;9.93;8.70;;;11.50;99.90;;;;;;4861331;29;20205;-89
2022/10/13 00:43:45;;;;;;;11.93;8.70;;;11.40;99.90;;;;;;4861272;29;20198;-89
2022/10/13 00:46:11;;;;;;;12.93;8.80;;;11.40;99.90;;;;;;4861039;29;20182;-89
2022/10/13 00:48:38;;;;;;;12.47;8.30;;;11.40;99.90;;;;;;4860963;29;20190;-89
2022/10/13 00:51:05;;;;;;;10.97;8.87;;;11.50;99.90;;;;;;4860836;29;20226;-89
2022/10/13 00:53:35;;;;;;;12.63;9.20;;;11.50;99.90;;;;;;4860864;29;20242;-89
2022/10/13 00:56:01;;;;;;;11.63;9.13;;;11.50;99.90;;;;;;4861010;29;20184;-89
2022/10/13 00:58:30;;;;;;;12.03;9.37;;;11.40;99.90;;;;;;4860062;29;20209;-89
2022/10/13 01:00:57;;;;;;;15.87;9.63;;;11.50;99.90;;;;;;4860825;29;20275;-89
2022/10/13 01:03:24;;;;;;;13.70;10.07;;;11.50;99.90;;;;;;4859139;29;20232;-89
2022/10/13 01:05:54;;;;;;;13.77;10.03;;;11.60;99.90;;;;;;4845655;29;20189;-89
2022/10/13 01:08:21;;;;;;;13.30;10.43;;;11.60;99.90;;;;;;4845171;29;20188;-88
2022/10/13 01:11:02;;;;;;;14.27;10.67;;;11.60;99.90;;;;;;4860537;29;20221;-89
2022/10/13 01:13:31;;;;;;;16.17;10.37;;;11.60;99.90;;;;;;4860168;29;20239;-89
2022/10/13 01:16:03;;;;;;;15.07;10.23;;;11.60;99.90;;;;;;4859841;29;20199;-88
2022/10/13 01:18:44;;;;;;;14.57;10.73;;;11.70;99.90;;;;;;4844779;29;20187;-89
2022/10/13 01:21:25;;;;;;;15.03;10.50;;;11.70;99.90;;;;;;4860414;29;20208;-89
2022/10/13 01:24:04;;;;;;;15.27;10.20;;;11.70;99.90;;;;;;4860307;29;20667;-89
2022/10/13 01:26:54;;;;;;;15.23;11.47;;;11.80;99.90;;;;;;4860366;29;20179;-88
2022/10/13 01:29:41;;;;;;;16.83;10.70;;;11.80;99.90;;;;;;4860472;29;20271;-89
2022/10/13 01:32:11;;;;;;;15.50;11.27;;;11.80;99.90;;;;;;4860049;29;20310;-89
2022/10/13 01:34:58;;;;;;;14.77;9.70;;;11.80;99.90;;;;;;4860232;29;20272;-89
2022/10/13 01:37:40;;;;;;;15.50;9.67;;;11.80;99.90;;;;;;4859849;29;20177;-89
2022/10/13 01:40:22;;;;;;;12.73;9.53;;;11.80;99.90;;;;;;4860257;29;20179;-89
2022/10/13 01:42:57;;;;;;;13.83;9.43;;;11.80;99.90;;;;;;4860190;29;20230;-89
2022/10/13 01:45:29;;;;;;;15.13;9.50;;;11.80;99.90;;;;;;4860231;29;20188;-88
2022/10/13 01:47:58;;;;;;;14.60;10.70;;;11.80;99.90;;;;;;4860007;29;20293;-89
2022/10/13 01:50:24;;;;;;;15.23;10.07;;;11.80;99.90;;;;;;4860159;29;20188;-89
2022/10/13 01:52:51;;;;;;;18.73;12.13;;;11.90;99.90;;;;;;4844317;29;20219;-89
2022/10/13 01:55:17;;;;;;;16.53;10.77;;;11.90;99.90;;;;;;4859467;29;20290;-89
2022/10/13 01:57:44;;;;;;;14.77;11.00;;;11.90;99.90;;;;;;4858918;29;20271;-89
2022/10/13 02:00:14;;;;;;;17.73;10.73;;;11.90;99.90;;;;;;4844585;29;20239;-89
2022/10/13 02:03:00;;;;;;;18.47;11.30;;;11.90;99.90;;;;;;4844968;29;20215;-89
2022/10/13 02:05:48;;;;;;;16.27;11.00;;;11.90;99.90;;;;;;4859843;29;20181;-89
2022/10/13 02:08:55;;;;;;;15.30;11.77;;;11.90;99.90;;;;;;4859687;29;20196;-89
2022/10/13 02:11:23;;;;;;;17.13;11.43;;;11.90;99.90;;;;;;4843247;29;20215;-89
2022/10/13 02:13:56;;;;;;;17.30;11.47;;;11.90;99.90;;;;;;4843155;29;20223;-89
2022/10/13 02:16:29;;;;;;;17.50;10.80;;;11.90;99.90;;;;;;4840846;29;20276;-89
2022/10/13 02:18:56;;;;;;;16.47;12.20;;;11.90;99.90;;;;;;4826298;29;20183;-89
2022/10/13 02:21:22;;;;;;;18.53;11.00;;;12.00;99.90;;;;;;4826209;29;20206;-89
2022/10/13 02:23:49;;;;;;;14.80;10.97;;;12.00;99.90;;;;;;4826280;29;20536;-89
2022/10/13 02:26:19;;;;;;;16.83;11.20;;;12.00;99.90;;;;;;4831483;29;20187;-89
2022/10/13 02:28:49;;;;;;;15.70;11.07;;;12.00;99.90;;;;;;4858253;29;20191;-89
2022/10/13 02:31:15;;;;;;;16.77;11.37;;;12.00;99.90;;;;;;4860369;29;20210;-88
2022/10/13 02:33:41;;;;;;;18.50;12.70;;;12.00;99.90;;;;;;4859598;29;20214;-89
2022/10/13 02:36:06;;;;;;;18.57;11.03;;;12.00;99.90;;;;;;4859425;29;20327;-89
2022/10/13 02:38:32;;;;;;;16.50;10.80;;;12.00;99.90;;;;;;4859336;29;20199;-89
2022/10/13 02:41:05;;;;;;;16.93;12.23;;;12.00;99.90;;;;;;4844351;29;20195;-89
2022/10/13 02:43:32;;;;;;;14.37;11.00;;;12.10;99.90;;;;;;4844572;29;20179;-89
2022/10/13 02:45:58;;;;;;;14.73;11.00;;;12.10;99.90;;;;;;4844325;29;20211;-89
2022/10/13 02:48:24;;;;;;;15.67;11.53;;;12.10;99.90;;;;;;4859618;29;20192;-89
2022/10/13 02:50:50;;;;;;;16.10;11.43;;;12.10;99.90;;;;;;4859338;29;20204;-89
2022/10/13 02:53:18;;;;;;;17.60;11.27;;;12.20;99.90;;;;;;4858953;29;20217;-88
2022/10/13 02:55:44;;;;;;;18.80;11.13;;;12.20;99.90;;;;;;4844053;29;20267;-89
2022/10/13 02:58:10;;;;;;;15.37;11.23;;;12.20;99.90;;;;;;4843896;29;20280;-89
2022/10/13 03:00:38;;;;;;;13.83;10.77;;;12.20;99.90;;;;;;4844015;29;20194;-89
2022/10/13 03:03:05;;;;;;;17.40;11.03;;;12.20;99.90;;;;;;4840908;29;20284;-89
2022/10/13 03:05:31;;;;;;;18.67;11.30;;;12.20;99.90;;;;;;4841152;29;20185;-88
2022/10/13 03:07:57;;;;;;;14.27;11.10;;;12.20;99.90;;;;;;4842462;29;20193;-89
2022/10/13 03:10:23;;;;;;;13.17;10.50;;;12.10;99.90;;;;;;4844023;29;20228;-89
2022/10/13 03:12:50;;;;;;;13.53;10.67;;;12.10;99.90;;;;;;4844066;29;20276;-89
2022/10/13 03:15:16;;;;;;;13.47;9.97;;;12.00;99.90;;;;;;4860218;29;20180;-89
2022/10/13 03:17:54;;;;;;;13.70;10.30;;;12.00;99.90;;;;;;4858548;29;20231;-89
2022/10/13 03:20:23;;;;;;;13.70;10.80;;;11.90;99.90;;;;;;4858836;29;20233;-89
2022/10/13 03:23:14;;;;;;;14.97;11.00;;;11.80;99.90;;;;;;4844063;29;20215;-89
2022/10/13 03:25:40;;;;;;;18.63;10.13;;;11.70;99.90;;;;;;4843866;29;20189;-89
2022/10/13 03:28:06;;;;;;;16.20;10.37;;;11.70;99.90;;;;;;4843645;29;20190;-89
2022/10/13 03:30:32;;;;;;;15.70;10.47;;;11.70;99.90;;;;;;4843807;29;20205;-89
2022/10/13 03:32:58;;;;;;;16.87;10.33;;;11.70;99.90;;;;;;4843755;29;20234;-89
2022/10/13 03:35:32;;;;;;;16.50;10.10;;;11.60;99.90;;;;;;4843757;29;20183;-88
2022/10/13 03:37:58;;;;;;;14.40;9.73;;;11.60;99.90;;;;;;4828346;29;20275;-89
2022/10/13 03:40:24;;;;;;;14.07;9.60;;;11.50;99.90;;;;;;4862145;29;20255;-89
2022/10/13 03:42:50;;;;;;;15.27;11.23;;;11.40;99.90;;;;;;4853017;29;20216;-90
2022/10/13 03:45:18;;;;;;;18.67;12.10;;;11.40;99.90;;;;;;4828519;29;20247;-90
2022/10/13 03:48:01;;;;;;;15.43;11.70;;;11.30;99.90;;;;;;4843559;29;20195;-89
2022/10/13 03:50:30;;;;;;;14.23;10.80;;;11.30;99.90;;;;;;4842447;29;20200;-90
2022/10/13 03:53:23;;;;;;;12.87;9.53;;;11.30;99.90;;;;;;4828257;29;20228;-90
2022/10/13 03:55:59;;;;;;;16.70;9.77;;;11.20;99.90;;;;;;4849940;29;20203;-90
2022/10/13 03:58:30;;;;;;;16.63;10.30;;;11.10;99.90;;;;;;4861248;29;20263;-89
2022/10/13 04:01:02;;;;;;;16.17;10.90;;;11.00;99.90;;;;;;4859612;29;20823;-89
2022/10/13 04:03:28;;;;;;;17.00;10.90;;;10.70;99.90;;;;;;4862258;29;20195;-89
2022/10/13 04:05:54;;;;;;;17.63;11.90;;;10.50;99.90;;;;;;4861817;29;20188;-89
2022/10/13 04:08:20;;;;;;;17.77;11.50;;;10.50;99.90;;;;;;4861591;29;20686;-89
2022/10/13 04:10:46;;;;;;;18.23;12.27;;;10.40;99.90;;;;;;4861728;29;20193;-89
2022/10/13 04:13:12;;;;;;;19.43;12.37;;;10.40;99.90;;;;;;4862067;29;20218;-89
2022/10/13 04:15:44;;;;;;;19.33;12.33;;;10.40;99.90;;;;;;4861892;29;20204;-89
2022/10/13 04:18:10;;;;;;;19.63;12.43;;;10.40;99.90;;;;;;4856471;29;20244;-89
2022/10/13 04:20:38;;;;;;;25.10;13.33;;;10.40;99.90;;;;;;4861739;29;20181;-89
2022/10/13 04:23:05;;;;;;;16.67;11.47;;;10.30;99.90;;;;;;4861803;29;20205;-89
2022/10/13 04:25:37;;;;;;;18.50;12.00;;;10.30;99.90;;;;;;4861594;29;20189;-89
2022/10/13 04:28:05;;;;;;;17.47;12.53;;;10.30;99.90;;;;;;4861379;29;20178;-88
2022/10/13 04:30:34;;;;;;;21.33;13.17;;;10.40;99.90;;;;;;4872940;29;20229;-89
2022/10/13 04:33:00;;;;;;;17.40;12.10;;;10.40;99.90;;;;;;4845106;29;20229;-89
2022/10/13 04:35:26;;;;;;;17.20;11.47;;;10.40;99.90;;;;;;4846363;29;20177;-89
2022/10/13 04:37:52;;;;;;;15.10;11.50;;;10.40;99.90;;;;;;4846081;29;20178;-89
2022/10/13 04:40:19;;;;;;;15.90;11.07;;;10.40;99.90;;;;;;4861357;29;20195;-89
2022/10/13 04:42:45;;;;;;;19.70;12.07;;;10.40;99.90;;;;;;4876635;29;20208;-89
2022/10/13 04:45:11;;;;;;;17.10;11.33;;;10.40;99.90;;;;;;4846024;29;20197;-89
2022/10/13 04:47:44;;;;;;;16.17;11.80;;;10.30;99.90;;;;;;4845454;29;20186;-89
2022/10/13 04:50:10;;;;;;;17.47;12.33;;;10.20;99.90;;;;;;4845622;29;20185;-89
2022/10/13 04:52:36;;;;;;;17.57;12.03;;;10.20;99.90;;;;;;4845816;29;20212;-89
2022/10/13 04:55:02;;;;;;;16.33;11.93;;;10.20;99.90;;;;;;4861292;29;20185;-85
2022/10/13 04:57:28;;;;;;;17.80;12.10;;;10.20;99.90;;;;;;4860924;29;20182;-89
2022/10/13 04:59:54;;;;;;;16.00;12.03;;;10.20;99.90;;;;;;4860749;29;20206;-89
2022/10/13 05:02:20;;;;;;;19.83;12.77;;;10.10;99.90;;;;;;4845672;29;20220;-89
2022/10/13 05:04:46;;;;;;;21.90;13.53;;;10.10;99.90;;;;;;4861141;29;20272;-89
2022/10/13 05:07:12;;;;;;;16.43;12.67;;;10.10;99.90;;;;;;4845356;29;20189;-89
2022/10/13 05:09:39;;;;;;;14.63;11.83;;;10.10;99.90;;;;;;4846032;29;20426;-89
2022/10/13 05:12:09;;;;;;;14.00;10.50;;;10.10;99.90;;;;;;4846130;29;20211;-88
2022/10/13 05:14:35;;;;;;;15.20;11.10;;;10.10;99.90;;;;;;4860930;29;20212;-89
2022/10/13 05:17:01;;;;;;;15.73;10.17;;;10.20;99.90;;;;;;4862607;29;20180;-89
2022/10/13 05:19:27;;;;;;;15.37;10.77;;;10.20;99.90;;;;;;4863477;29;20188;-89
2022/10/13 05:21:54;;;;;;;15.37;10.77;;;10.10;99.90;;;;;;4826962;29;20220;-89
2022/10/13 05:24:29;;;;;;;14.03;9.90;;;10.10;99.90;;;;;;4827800;29;20274;-89
2022/10/13 05:26:57;;;;;;;13.30;9.60;;;10.10;99.90;;;;;;4860168;29;20177;-89
2022/10/13 05:29:24;;;;;;;15.73;10.53;;;10.10;99.90;;;;;;4862626;29;20180;-89
2022/10/13 05:31:49;;;;;;;12.63;9.93;;;10.10;99.90;;;;;;4862975;29;20219;-89
2022/10/13 05:34:15;;;;;;;14.67;10.50;;;10.00;99.90;;;;;;4878604;29;20641;-88
2022/10/13 05:36:41;;;;;;;12.20;10.23;;;9.90;99.90;;;;;;4861570;29;20184;-89
2022/10/13 05:39:08;;;;;;;14.30;10.60;;;10.00;99.90;;;;;;4844822;29;20189;-89
2022/10/13 05:41:35;;;;;;;16.97;11.47;;;10.00;99.90;;;;;;4844439;29;20215;-89
2022/10/13 05:44:07;;;;;;;13.87;10.37;;;10.00;99.90;;;;;;4845081;29;20267;-89
2022/10/13 05:46:39;;;;;;;15.87;10.37;;;10.00;99.90;;;;;;4860850;29;20189;-89
2022/10/13 05:49:05;;;;;;;12.30;9.13;;;10.00;99.90;;;;;;4844665;29;20204;-89
2022/10/13 05:51:35;;;;;;;12.27;9.30;;;10.00;99.90;;;;;;4859756;29;20204;-89
2022/10/13 05:54:09;;;;;;;15.07;9.23;;;10.00;99.90;;;;;;4860011;29;20224;-88
2022/10/13 05:56:44;;;;;;;13.40;9.37;;;10.00;99.90;;;;;;4860816;29;20218;-89
2022/10/13 05:59:13;;;;;;;16.57;11.57;;;10.00;99.90;;;;;;4860176;29;20188;-89
2022/10/13 06:01:41;;;;;;;13.00;11.03;;;10.00;99.90;;;;;;4844059;29;20219;-89
2022/10/13 06:04:14;;;;;;;17.13;11.10;;;10.00;99.90;;;;;;4843568;29;20187;-89
2022/10/13 06:06:40;;;;;;;13.20;9.87;;;10.00;99.90;;;;;;4843606;29;20241;-90
2022/10/13 06:09:06;;;;;;;14.77;10.70;;;10.00;99.90;;;;;;4859894;29;20219;-89
2022/10/13 06:11:32;;;;;;;12.03;9.87;;;10.10;99.90;;;;;;4874985;29;20204;-89
2022/10/13 06:13:58;;;;;;;16.33;11.57;;;10.10;99.90;;;;;;4859398;29;20220;-89
2022/10/13 06:16:24;;;;;;;16.83;11.53;;;10.10;99.90;;;;;;4860675;29;20269;-89
2022/10/13 06:18:51;;;;;;;16.67;11.40;;;10.20;99.90;;;;;;4844157;29;20184;-89
2022/10/13 06:21:17;;;;;;;13.03;9.83;;;10.20;99.90;;;;;;4844455;29;20197;-89
2022/10/13 06:23:46;;;;;;;14.13;9.33;;;10.30;99.90;;;;;;4859483;29;20193;-89
2022/10/13 06:26:14;;;;;;;8.47;7.57;;;10.30;99.90;;;;;;4844374;29;20198;-89
2022/10/13 06:28:40;;;;;;;9.60;7.57;;;10.30;99.90;;;;;;4858931;29;20225;-89
2022/10/13 06:31:06;;;;;;;9.10;8.10;;;10.40;99.90;;;;;;4844343;29;20197;-84
2022/10/13 06:33:32;;;;;;;10.83;8.90;;;10.40;99.90;;;;;;4837154;29;20281;-89
2022/10/13 06:36:19;;;;;;;10.57;8.97;;;10.40;99.90;;;;;;4839161;29;20232;-89
2022/10/13 06:38:45;;;;;;;14.67;9.80;;;10.50;99.90;;;;;;4858866;29;20189;-89
2022/10/13 06:41:13;;;;;;;12.80;9.20;;;10.50;99.90;;;;;;4858927;29;20200;-88
2022/10/13 06:43:40;;;;;;;11.97;9.90;;;10.50;99.90;;;;;;4859184;29;20203;-89
2022/10/13 06:46:10;;;;;;;16.07;10.43;;;10.50;99.90;;;;;;4858132;29;20185;-89
2022/10/13 06:48:37;;;;;;;15.53;10.33;;;10.50;99.90;;;;;;4841641;29;20280;-89
2022/10/13 06:51:05;;;;;;;13.40;10.17;;;10.50;99.90;;;;;;4843251;29;20186;-88
2022/10/13 06:53:32;;;;;;;12.17;10.67;;;10.60;99.90;;;;;;4853007;29;20233;-87
2022/10/13 06:56:02;;;;;;;13.77;10.40;;;10.60;99.90;;;;;;4856825;29;20281;-87
2022/10/13 06:58:28;;;;;;;11.73;10.53;;;10.60;99.90;;;;;;4849287;29;20189;-87
2022/10/13 07:01:13;;;;;;;10.70;8.93;;;10.70;99.90;;;;;;4864669;29;20267;-87
2022/10/13 07:03:43;;;;;;;12.60;9.17;;;10.80;99.90;;;;;;4876145;29;20179;-87
2022/10/13 07:06:28;;;;;;;15.10;9.30;;;10.80;99.90;;;;;;4892970;29;20263;-87
2022/10/13 07:08:57;;;;;;;12.37;10.70;;;10.80;99.90;;;;;;4873565;29;20194;-88
2022/10/13 07:11:23;;;;;;;10.77;9.20;;;10.90;99.90;;;;;;4877818;29;20204;-88
2022/10/13 07:13:55;;;;;;;13.07;11.23;;;10.90;99.90;;;;;;4846722;29;20211;-88
2022/10/13 07:16:46;;;;;;;13.87;10.70;;;11.00;99.90;;;;;;4843553;29;20168;-87
2022/10/13 07:19:15;;;;;;;15.07;11.53;;;11.10;99.90;;;;;;4843818;29;20190;-88
2022/10/13 07:21:46;;;;;;;18.23;12.13;;;11.10;99.90;;;;;;4858829;29;20234;-88
2022/10/13 07:24:12;;;;;;;16.93;12.47;;;11.20;99.90;;;;;;4844000;29;20178;-88
2022/10/13 07:26:40;;;;;;;15.93;11.67;;;11.30;99.90;;;;;;4855359;29;20677;-88
2022/10/13 07:29:07;;;;;;;20.97;13.23;;;11.30;99.90;;;;;;4865075;29;20191;-88
2022/10/13 07:31:33;;;;;;;18.17;12.80;;;11.40;99.90;;;;;;4865325;29;20279;-87
2022/10/13 07:33:59;;;;;;;19.03;13.07;;;11.40;99.90;;;;;;4880981;29;20213;-88
2022/10/13 07:36:27;;;;;;;18.90;12.97;;;11.50;99.90;;;;;;4865819;29;20268;-88
2022/10/13 07:38:53;;;;;;;19.43;13.37;;;11.50;99.90;;;;;;4856380;29;20190;-88
2022/10/13 07:41:20;;;;;;;20.13;12.97;;;11.60;99.90;;;;;;4846546;29;20215;-87
2022/10/13 07:43:46;;;;;;;26.00;14.27;;;11.70;99.90;;;;;;4846648;29;20194;-88
2022/10/13 07:46:12;;;;;;;21.50;13.40;;;11.70;99.90;;;;;;4846453;29;20206;-88
2022/10/13 07:48:38;;;;;;;14.83;11.00;;;11.80;99.90;;;;;;4846121;29;20200;-87
2022/10/13 07:51:12;;;;;;;16.97;12.87;;;11.90;99.90;;;;;;4846093;29;20270;-87
2022/10/13 07:53:39;;;;;;;13.63;11.63;;;12.00;99.90;;;;;;4846238;29;20202;-87
2022/10/13 07:56:08;;;;;;;16.53;12.77;;;12.10;99.90;;;;;;4846226;29;20191;-87
2022/10/13 07:58:37;;;;;;;19.70;11.20;;;12.10;99.90;;;;;;4861496;29;20551;-87
2022/10/13 08:01:03;;;;;;;18.57;11.07;;;12.20;99.90;;;;;;4843402;29;20661;-88
2022/10/13 08:03:31;;;;;;;19.13;11.73;;;12.30;99.90;;;;;;4843374;29;20193;-87
2022/10/13 08:06:16;;;;;;;17.57;11.40;;;12.40;99.90;;;;;;4853987;29;20198;-87
2022/10/13 08:08:42;;;;;;;16.43;10.77;;;12.50;99.90;;;;;;4857070;29;20657;-88
2022/10/13 08:11:13;;;;;;;19.67;10.93;;;12.50;99.90;;;;;;4861212;29;20208;-87
2022/10/13 08:13:39;;;;;;;14.60;10.00;;;12.60;99.90;;;;;;4845872;29;20211;-88
2022/10/13 08:16:19;;;;;;;14.33;10.53;;;12.70;99.90;;;;;;4847716;29;20225;-87
2022/10/13 08:18:46;;;;;;;15.87;10.43;;;12.70;99.90;;;;;;4842603;29;20220;-88
2022/10/13 08:21:27;;;;;;;15.00;10.67;;;12.70;99.90;;;;;;4861542;29;20265;-88
2022/10/13 08:23:52;;;;;;;16.80;10.67;;;12.80;99.90;;;;;;4844962;29;20198;-87
2022/10/13 08:26:24;;;;;;;14.50;10.97;;;12.80;99.90;;;;;;4845760;29;20270;-88
2022/10/13 08:28:51;;;;;;;15.03;10.23;;;12.80;99.90;;;;;;4845253;29;20200;-88
2022/10/13 08:31:19;;;;;;;16.80;10.60;;;12.80;99.90;;;;;;4846107;29;20234;-87
2022/10/13 08:33:50;;;;;;;20.13;11.00;;;12.90;99.90;;;;;;4845174;29;20227;-87
2022/10/13 08:36:18;;;;;;;15.77;10.43;;;12.90;99.90;;;;;;4845845;29;20211;-88
2022/10/13 08:38:44;;;;;;;18.87;11.30;;;13.00;99.90;;;;;;4845008;29;20192;-87
2022/10/13 08:41:20;;;;;;;13.43;10.33;;;13.10;99.90;;;;;;4844265;29;20243;-87
2022/10/13 08:44:30;;;;;;;17.10;11.60;;;13.20;99.90;;;;;;4878209;29;20198;-88
2022/10/13 08:47:03;;;;;;;14.80;9.60;;;13.30;99.90;;;;;;4861977;29;20184;-88
2022/10/13 08:49:30;;;;;;;15.43;10.23;;;13.40;99.90;;;;;;4861062;29;20264;-87
2022/10/13 08:51:57;;;;;;;13.50;10.30;;;13.50;99.90;;;;;;4845570;29;20237;-88
2022/10/13 08:54:29;;;;;;;15.50;10.40;;;13.50;99.90;;;;;;4860619;29;20181;-88
2022/10/13 08:56:57;;;;;;;14.40;10.50;;;13.60;99.90;;;;;;4860784;29;20176;-88
2022/10/13 08:59:22;;;;;;;19.47;10.70;;;13.70;99.90;;;;;;4845269;29;20177;-87
2022/10/13 09:01:53;;;;;;;16.30;10.00;;;13.70;99.90;;;;;;4844940;29;20629;-87
2022/10/13 09:04:39;;;;;;;15.20;9.70;;;13.80;99.90;;;;;;4845150;29;20187;-87
2022/10/13 09:07:37;;;;;;;16.50;9.90;;;13.80;99.90;;;;;;4859307;29;20276;-87
2022/10/13 09:10:03;;;;;;;17.50;10.50;;;13.90;99.90;;;;;;4844341;29;20199;-87
2022/10/13 09:12:32;;;;;;;14.70;10.43;;;13.90;99.90;;;;;;4844998;29;20231;-87
2022/10/13 09:15:04;;;;;;;17.97;10.93;;;13.90;99.90;;;;;;4844717;29;20185;-87
2022/10/13 09:17:32;;;;;;;13.90;9.40;;;14.00;99.90;;;;;;4844679;29;20185;-87
2022/10/13 09:20:18;;;;;;;14.00;8.97;;;14.00;99.90;;;;;;4859887;29;20185;-87
2022/10/13 09:22:59;;;;;;;11.30;8.80;;;14.00;99.90;;;;;;4844835;29;20343;-87
2022/10/13 09:25:25;;;;;;;12.97;9.40;;;14.10;99.90;;;;;;4844520;29;20229;-87
2022/10/13 09:28:07;;;;;;;13.30;9.50;;;14.10;99.90;;;;;;4844444;29;20192;-87
2022/10/13 09:30:35;;;;;;;13.63;9.17;;;14.10;99.90;;;;;;4859756;29;20252;-87
2022/10/13 09:33:11;;;;;;;13.43;9.40;;;14.20;99.90;;;;;;4844295;29;20232;-87
2022/10/13 09:35:39;;;;;;;17.07;9.30;;;14.20;99.90;;;;;;4843571;29;20180;-87
2022/10/13 09:38:11;;;;;;;12.33;9.27;;;14.30;99.90;;;;;;4846081;29;20188;-87
2022/10/13 09:40:58;;;;;;;14.97;10.77;;;14.30;99.90;;;;;;4859506;29;20271;-87
2022/10/13 09:43:41;;;;;;;15.50;9.70;;;14.40;99.90;;;;;;4859930;29;20169;-87
2022/10/13 09:46:31;;;;;;;14.20;8.83;;;14.40;99.90;;;;;;4859678;29;20184;-87
2022/10/13 09:49:24;;;;;;;13.60;9.20;;;14.50;99.90;;;;;;4859580;29;20189;-87
2022/10/13 09:51:50;;;;;;;13.63;9.77;;;14.50;99.90;;;;;;4844632;29;20260;-83
2022/10/13 09:54:34;;;;;;;15.97;9.70;;;14.70;99.90;;;;;;4859695;29;20291;-87
2022/10/13 09:57:23;;;;;;;17.87;10.80;;;14.80;99.90;;;;;;4859322;29;20200;-87
2022/10/13 10:00:18;;;;;;;14.60;9.93;;;14.90;99.90;;;;;;4839226;29;20196;-87
2022/10/13 10:03:05;;;;;;;12.93;10.37;;;15.00;99.90;;;;;;4857534;29;20213;-87
2022/10/13 10:05:52;;;;;;;14.93;9.23;;;15.10;99.90;;;;;;4843613;29;20192;-87
2022/10/13 10:08:48;;;;;;;17.07;11.83;;;15.20;99.90;;;;;;4859069;29;20180;-87
2022/10/13 10:11:23;;;;;;;14.93;9.23;;;15.00;99.90;;;;;;4859165;29;20209;-87
2022/10/13 10:13:51;;;;;;;13.00;8.60;;;15.10;99.90;;;;;;4859736;29;20196;-87
2022/10/13 10:16:42;;;;;;;15.17;9.80;;;15.20;99.90;;;;;;4859465;29;20185;-87
2022/10/13 10:19:23;;;;;;;14.23;9.13;;;15.30;99.90;;;;;;4859373;29;20173;-87
2022/10/13 10:22:04;;;;;;;13.10;9.43;;;15.40;99.90;;;;;;4859655;29;20208;-88
2022/10/13 10:24:54;;;;;;;13.23;8.83;;;15.40;99.90;;;;;;4859394;29;20190;-87
2022/10/13 10:27:43;;;;;;;15.77;11.33;;;15.50;99.90;;;;;;4859264;29;20279;-87
2022/10/13 10:30:20;;;;;;;13.53;8.93;;;15.40;99.90;;;;;;4858243;29;20208;-87
2022/10/13 10:32:58;;;;;;;15.00;9.93;;;15.40;99.90;;;;;;4843443;29;20216;-87
2022/10/13 10:35:49;;;;;;;16.57;11.70;;;15.50;99.90;;;;;;4859048;29;20176;-87
2022/10/13 10:38:43;;;;;;;13.83;10.00;;;15.40;99.90;;;;;;4859603;29;20196;-87
2022/10/13 10:41:30;;;;;;;11.23;8.43;;;15.40;99.90;;;;;;4843924;29;20212;-87
2022/10/13 10:44:18;;;;;;;15.43;9.53;;;15.40;99.90;;;;;;4858972;29;20180;-88
2022/10/13 10:46:49;;;;;;;11.53;8.80;;;15.40;99.90;;;;;;4856347;29;20209;-87
2022/10/13 10:49:27;;;;;;;14.57;9.10;;;15.50;99.90;;;;;;4844397;29;20189;-87
2022/10/13 10:51:54;;;;;;;12.70;8.73;;;15.60;99.90;;;;;;4845543;29;20235;-87
2022/10/13 10:54:36;;;;;;;12.87;8.23;;;15.70;99.90;;;;;;4862283;29;20213;-88
2022/10/13 10:57:24;;;;;;;13.50;7.87;;;15.80;99.90;;;;;;4862424;29;20211;-87
2022/10/13 10:59:56;;;;;;;14.87;9.97;;;15.80;99.90;;;;;;4877504;29;20224;-87
2022/10/13 11:03:00;;;;;;;12.60;7.97;;;15.80;99.90;;;;;;4862787;29;20298;-87
2022/10/13 11:06:13;;;;;;;13.35;8.40;;;15.90;99.90;;;;;;4862564;29;20176;-87
2022/10/13 11:08:42;;;;;;;9.53;7.50;;;16.00;99.90;;;;;;4859075;29;20208;-87
2022/10/13 11:11:26;;;;;;;13.00;8.53;;;16.10;99.90;;;;;;4862095;29;20333;-87
2022/10/13 11:14:19;;;;;;;11.47;8.10;;;16.20;99.90;;;;;;4862368;29;20212;-87
2022/10/13 11:17:04;;;;;;;12.73;7.50;;;16.20;99.90;;;;;;4862034;29;20193;-87
2022/10/13 11:19:33;;;;;;;10.77;8.57;;;16.30;99.90;;;;;;4862346;29;20273;-87
2022/10/13 11:21:59;;;;;;;12.20;9.38;;;16.40;99.90;;;;;;4862022;29;20200;-87
2022/10/13 11:24:34;;;;;;;11.67;8.53;;;16.40;99.90;;;;;;4861998;29;20189;-87
2022/10/13 11:27:07;;;;;;;13.35;7.80;;;16.40;99.90;;;;;;4861961;29;20226;-87
2022/10/13 11:29:47;;;;;;;13.55;9.00;;;16.50;99.90;;;;;;4862338;29;20226;-87
2022/10/13 11:32:40;;;;;;;8.80;7.65;;;16.60;99.90;;;;;;4861811;29;20208;-87
2022/10/13 11:35:07;;;;;;;11.90;7.77;;;16.60;99.90;;;;;;4862090;29;20200;-87
2022/10/13 11:37:57;;;;;;;9.90;7.65;;;16.60;99.90;;;;;;4861741;29;20252;-87
2022/10/13 11:40:23;;;;;;;11.95;8.13;;;16.60;99.90;;;;;;4861898;29;20184;-87
2022/10/13 11:43:11;;;;;;;10.48;8.05;;;16.70;99.90;;;;;;4862041;29;20209;-87
2022/10/13 11:46:10;;;;;;;10.95;7.35;;;16.70;99.90;;;;;;4862440;29;20241;-87
2022/10/13 11:48:39;;;;;;;13.52;8.52;;;16.80;99.90;;;;;;4866347;29;20192;-87
2022/10/13 11:51:34;;;;;;;9.50;8.05;;;16.90;99.90;;;;;;4862104;29;20181;-87
2022/10/13 11:54:13;;;;;;;13.35;8.38;;;16.80;99.90;;;;;;4845943;29;20445;-87
2022/10/13 11:56:57;;;;;;;13.05;8.50;;;17.00;99.90;;;;;;4861652;29;20193;-87
2022/10/13 11:59:30;;;;;;;10.93;8.50;;;17.10;99.90;;;;;;4860310;29;20195;-87
2022/10/13 12:02:04;;;;;;;13.90;8.55;;;17.30;99.90;;;;;;4861241;29;20208;-87
2022/10/13 12:04:30;;;;;;;10.00;7.45;;;17.40;99.90;;;;;;4861410;29;20192;-87
2022/10/13 12:07:03;;;;;;;9.18;6.72;;;17.50;99.90;;;;;;4861705;29;20192;-87
2022/10/13 12:09:30;;;;;;;8.73;6.90;;;17.60;99.90;;;;;;4861388;29;20188;-87
2022/10/13 12:12:13;;;;;;;9.73;7.10;;;17.80;99.90;;;;;;4861652;29;20270;-87
2022/10/13 12:14:42;;;;;;;11.48;7.75;;;17.90;99.90;;;;;;4861158;29;20188;-87
2022/10/13 12:17:26;;;;;;;13.25;8.32;;;18.00;99.90;;;;;;4861543;29;20252;-87
2022/10/13 12:19:53;;;;;;;9.90;7.05;;;18.00;99.90;;;;;;4861498;29;20264;-87
2022/10/13 12:22:26;;;;;;;16.00;8.38;;;18.10;99.90;;;;;;4862070;29;20196;-87
2022/10/13 12:25:00;;;;;;;10.30;7.18;;;18.10;99.90;;;;;;4845988;29;20181;-87
2022/10/13 12:27:31;;;;;;;11.07;7.45;;;18.20;99.90;;;;;;4860480;29;20188;-87
2022/10/13 12:30:01;;;;;;;10.13;7.13;;;18.20;99.90;;;;;;4860874;29;20188;-87
2022/10/13 12:32:32;;;;;;;11.77;6.95;;;18.30;99.90;;;;;;4860631;29;20264;-87
2022/10/13 12:35:28;;;;;;;13.27;7.43;;;18.40;99.90;;;;;;4861064;29;20209;-87
2022/10/13 12:38:00;;;;;;;12.25;7.32;;;18.50;99.90;;;;;;4845946;29;20173;-87
2022/10/13 12:40:27;;;;;;;9.55;7.15;;;18.50;99.90;;;;;;4861532;29;20275;-87
2022/10/13 12:42:54;;;;;;;9.68;6.75;;;18.60;99.90;;;;;;4860459;29;20212;-87
2022/10/13 12:45:25;;;;;;;9.82;5.72;;;18.70;99.90;;;;;;4860122;29;20187;-87
2022/10/13 12:47:52;;;;;;;9.95;6.63;;;18.70;99.90;;;;;;4860506;29;20205;-87
2022/10/13 12:50:27;;;;;;;8.98;6.03;;;18.70;99.90;;;;;;4860798;29;20188;-87
2022/10/13 12:53:10;;;;;;;11.93;6.78;;;18.70;99.90;;;;;;4860744;29;20204;-87
2022/10/13 12:55:46;;;;;;;14.52;7.03;;;18.60;99.90;;;;;;4861132;29;20185;-87
2022/10/13 12:58:32;;;;;;;12.60;6.25;;;18.50;99.90;;;;;;4861075;29;20179;-87